sensor_id;sensor_type;location;lat;lon;timestamp;P1;durP1;ratioP1;P2;durP2;ratioP2
16878;SDS011;8556;52.218;9.884;2023-02-28T00:02:25;7.10;;;4.60;;
16878;SDS011;8556;52.218;9.884;2023-02-28T00:04:52;7.83;;;4.33;;
16878;SDS011;8556;52.218;9.884;2023-02-28T00:07:27;7.70;;;4.30;;
16878;SDS011;8556;52.218;9.884;2023-02-28T00:09:54;7.20;;;4.37;;
16878;SDS011;8556;52.218;9.884;2023-02-28T00:12:21;7.10;;;4.53;;
16878;SDS011;8556;52.218;9.884;2023-02-28T00:14:47;7.07;;;4.20;;
16878;SDS011;8556;52.218;9.884;2023-02-28T00:17:14;7.43;;;4.37;;
16878;SDS011;8556;52.218;9.884;2023-02-28T00:19:42;8.93;;;4.63;;
16878;SDS011;8556;52.218;9.884;2023-02-28T00:22:09;7.87;;;4.70;;
16878;SDS011;8556;52.218;9.884;2023-02-28T00:24:38;8.47;;;4.40;;
16878;SDS011;8556;52.218;9.884;2023-02-28T00:27:04;8.10;;;4.30;;
16878;SDS011;8556;52.218;9.884;2023-02-28T00:29:31;8.60;;;4.63;;
16878;SDS011;8556;52.218;9.884;2023-02-28T00:31:58;5.30;;;3.90;;
16878;SDS011;8556;52.218;9.884;2023-02-28T00:34:25;10.03;;;5.20;;
16878;SDS011;8556;52.218;9.884;2023-02-28T00:36:51;7.87;;;4.37;;
16878;SDS011;8556;52.218;9.884;2023-02-28T00:39:18;10.10;;;4.70;;
16878;SDS011;8556;52.218;9.884;2023-02-28T00:41:46;8.70;;;5.27;;
16878;SDS011;8556;52.218;9.884;2023-02-28T00:44:13;8.97;;;5.07;;
16878;SDS011;8556;52.218;9.884;2023-02-28T00:46:40;6.87;;;4.47;;
16878;SDS011;8556;52.218;9.884;2023-02-28T00:49:07;8.77;;;4.70;;
16878;SDS011;8556;52.218;9.884;2023-02-28T00:51:34;9.63;;;5.40;;
16878;SDS011;8556;52.218;9.884;2023-02-28T00:54:00;10.93;;;5.60;;
16878;SDS011;8556;52.218;9.884;2023-02-28T00:56:27;6.77;;;4.87;;
16878;SDS011;8556;52.218;9.884;2023-02-28T00:58:56;7.20;;;4.87;;
16878;SDS011;8556;52.218;9.884;2023-02-28T01:01:22;6.10;;;4.17;;
16878;SDS011;8556;52.218;9.884;2023-02-28T01:03:49;7.20;;;4.93;;
16878;SDS011;8556;52.218;9.884;2023-02-28T01:06:16;8.13;;;4.90;;
16878;SDS011;8556;52.218;9.884;2023-02-28T01:08:43;7.70;;;5.13;;
16878;SDS011;8556;52.218;9.884;2023-02-28T01:11:10;9.67;;;4.40;;
16878;SDS011;8556;52.218;9.884;2023-02-28T01:13:40;7.20;;;4.93;;
16878;SDS011;8556;52.218;9.884;2023-02-28T01:16:09;7.67;;;5.17;;
16878;SDS011;8556;52.218;9.884;2023-02-28T01:18:36;6.73;;;4.83;;
16878;SDS011;8556;52.218;9.884;2023-02-28T01:21:03;7.83;;;5.43;;
16878;SDS011;8556;52.218;9.884;2023-02-28T01:23:31;8.60;;;5.03;;
16878;SDS011;8556;52.218;9.884;2023-02-28T01:25:59;11.83;;;5.53;;
16878;SDS011;8556;52.218;9.884;2023-02-28T01:28:30;9.70;;;4.80;;
16878;SDS011;8556;52.218;9.884;2023-02-28T01:30:57;9.50;;;5.13;;
16878;SDS011;8556;52.218;9.884;2023-02-28T01:33:25;8.77;;;4.67;;
16878;SDS011;8556;52.218;9.884;2023-02-28T01:35:57;9.27;;;5.30;;
16878;SDS011;8556;52.218;9.884;2023-02-28T01:38:24;9.90;;;5.60;;
16878;SDS011;8556;52.218;9.884;2023-02-28T01:40:51;8.20;;;5.27;;
16878;SDS011;8556;52.218;9.884;2023-02-28T01:43:20;7.97;;;5.63;;
16878;SDS011;8556;52.218;9.884;2023-02-28T01:45:48;8.07;;;5.27;;
16878;SDS011;8556;52.218;9.884;2023-02-28T01:48:15;9.53;;;5.60;;
16878;SDS011;8556;52.218;9.884;2023-02-28T01:50:44;10.40;;;5.87;;
16878;SDS011;8556;52.218;9.884;2023-02-28T01:53:14;9.33;;;5.40;;
16878;SDS011;8556;52.218;9.884;2023-02-28T01:55:46;8.73;;;5.40;;
16878;SDS011;8556;52.218;9.884;2023-02-28T01:58:16;8.13;;;5.17;;
16878;SDS011;8556;52.218;9.884;2023-02-28T02:00:43;8.97;;;5.37;;
16878;SDS011;8556;52.218;9.884;2023-02-28T02:03:11;8.30;;;5.00;;
16878;SDS011;8556;52.218;9.884;2023-02-28T02:05:40;8.83;;;5.33;;
16878;SDS011;8556;52.218;9.884;2023-02-28T02:08:15;9.97;;;5.80;;
16878;SDS011;8556;52.218;9.884;2023-02-28T02:10:45;10.83;;;5.70;;
16878;SDS011;8556;52.218;9.884;2023-02-28T02:13:25;9.73;;;5.80;;
16878;SDS011;8556;52.218;9.884;2023-02-28T02:16:18;10.20;;;6.20;;
16878;SDS011;8556;52.218;9.884;2023-02-28T02:18:54;8.37;;;5.40;;
16878;SDS011;8556;52.218;9.884;2023-02-28T02:21:40;8.20;;;6.10;;
16878;SDS011;8556;52.218;9.884;2023-02-28T02:24:33;9.17;;;6.00;;
16878;SDS011;8556;52.218;9.884;2023-02-28T02:27:16;8.63;;;5.60;;
16878;SDS011;8556;52.218;9.884;2023-02-28T02:36:17;10.27;;;5.97;;
16878;SDS011;8556;52.218;9.884;2023-02-28T02:38:49;10.60;;;5.93;;
16878;SDS011;8556;52.218;9.884;2023-02-28T02:41:23;12.30;;;6.40;;
16878;SDS011;8556;52.218;9.884;2023-02-28T02:43:55;8.30;;;5.97;;
16878;SDS011;8556;52.218;9.884;2023-02-28T02:46:28;10.63;;;6.77;;
16878;SDS011;8556;52.218;9.884;2023-02-28T02:48:59;10.07;;;6.10;;
16878;SDS011;8556;52.218;9.884;2023-02-28T02:51:31;11.70;;;5.53;;
16878;SDS011;8556;52.218;9.884;2023-02-28T02:54:02;10.13;;;5.60;;
16878;SDS011;8556;52.218;9.884;2023-02-28T02:56:32;9.17;;;5.97;;
16878;SDS011;8556;52.218;9.884;2023-02-28T02:59:02;8.80;;;5.67;;
16878;SDS011;8556;52.218;9.884;2023-02-28T03:01:32;9.20;;;5.77;;
16878;SDS011;8556;52.218;9.884;2023-02-28T03:04:03;11.13;;;5.87;;
16878;SDS011;8556;52.218;9.884;2023-02-28T03:06:33;12.27;;;6.67;;
16878;SDS011;8556;52.218;9.884;2023-02-28T03:09:01;11.57;;;6.27;;
16878;SDS011;8556;52.218;9.884;2023-02-28T03:11:30;10.30;;;6.53;;
16878;SDS011;8556;52.218;9.884;2023-02-28T03:14:04;12.87;;;6.57;;
16878;SDS011;8556;52.218;9.884;2023-02-28T03:16:51;9.93;;;5.90;;
16878;SDS011;8556;52.218;9.884;2023-02-28T03:19:55;11.73;;;6.37;;
16878;SDS011;8556;52.218;9.884;2023-02-28T03:25:27;9.03;;;5.67;;
16878;SDS011;8556;52.218;9.884;2023-02-28T03:28:00;8.27;;;5.53;;
16878;SDS011;8556;52.218;9.884;2023-02-28T03:30:34;8.63;;;5.60;;
16878;SDS011;8556;52.218;9.884;2023-02-28T03:33:08;9.00;;;5.77;;
16878;SDS011;8556;52.218;9.884;2023-02-28T03:35:39;12.23;;;7.30;;
16878;SDS011;8556;52.218;9.884;2023-02-28T03:38:10;11.30;;;6.43;;
16878;SDS011;8556;52.218;9.884;2023-02-28T03:40:42;8.90;;;5.70;;
16878;SDS011;8556;52.218;9.884;2023-02-28T03:43:14;10.63;;;5.90;;
16878;SDS011;8556;52.218;9.884;2023-02-28T03:45:46;8.30;;;5.37;;
16878;SDS011;8556;52.218;9.884;2023-02-28T03:48:17;9.67;;;5.57;;
16878;SDS011;8556;52.218;9.884;2023-02-28T03:50:48;7.90;;;5.33;;
16878;SDS011;8556;52.218;9.884;2023-02-28T03:53:21;9.23;;;5.40;;
16878;SDS011;8556;52.218;9.884;2023-02-28T03:55:52;8.37;;;5.37;;
16878;SDS011;8556;52.218;9.884;2023-02-28T03:58:24;9.30;;;5.90;;
16878;SDS011;8556;52.218;9.884;2023-02-28T04:00:59;8.30;;;5.70;;
16878;SDS011;8556;52.218;9.884;2023-02-28T04:03:34;9.83;;;5.63;;
16878;SDS011;8556;52.218;9.884;2023-02-28T04:06:01;7.87;;;5.37;;
16878;SDS011;8556;52.218;9.884;2023-02-28T04:08:30;7.87;;;4.90;;
16878;SDS011;8556;52.218;9.884;2023-02-28T04:10:58;8.37;;;5.10;;
16878;SDS011;8556;52.218;9.884;2023-02-28T04:13:29;10.77;;;5.50;;
16878;SDS011;8556;52.218;9.884;2023-02-28T04:15:56;8.47;;;5.40;;
16878;SDS011;8556;52.218;9.884;2023-02-28T04:18:23;10.47;;;5.73;;
16878;SDS011;8556;52.218;9.884;2023-02-28T04:20:50;11.80;;;6.67;;
16878;SDS011;8556;52.218;9.884;2023-02-28T04:23:17;10.13;;;5.30;;
16878;SDS011;8556;52.218;9.884;2023-02-28T04:25:45;9.20;;;5.83;;
16878;SDS011;8556;52.218;9.884;2023-02-28T04:28:12;8.23;;;5.37;;
16878;SDS011;8556;52.218;9.884;2023-02-28T04:30:38;7.13;;;4.90;;
16878;SDS011;8556;52.218;9.884;2023-02-28T04:33:05;10.50;;;5.67;;
16878;SDS011;8556;52.218;9.884;2023-02-28T04:35:32;8.17;;;5.50;;
16878;SDS011;8556;52.218;9.884;2023-02-28T04:37:59;11.23;;;6.20;;
16878;SDS011;8556;52.218;9.884;2023-02-28T04:40:26;8.67;;;5.67;;
16878;SDS011;8556;52.218;9.884;2023-02-28T04:42:54;8.37;;;5.07;;
16878;SDS011;8556;52.218;9.884;2023-02-28T04:45:21;9.67;;;5.00;;
16878;SDS011;8556;52.218;9.884;2023-02-28T04:47:47;8.30;;;5.23;;
16878;SDS011;8556;52.218;9.884;2023-02-28T04:50:14;10.00;;;6.17;;
16878;SDS011;8556;52.218;9.884;2023-02-28T04:52:41;12.17;;;6.63;;
16878;SDS011;8556;52.218;9.884;2023-02-28T04:55:08;8.90;;;6.10;;
16878;SDS011;8556;52.218;9.884;2023-02-28T04:57:35;7.57;;;5.67;;
16878;SDS011;8556;52.218;9.884;2023-02-28T05:00:05;12.07;;;6.63;;
16878;SDS011;8556;52.218;9.884;2023-02-28T05:02:36;8.93;;;6.00;;
16878;SDS011;8556;52.218;9.884;2023-02-28T05:05:04;10.60;;;5.97;;
16878;SDS011;8556;52.218;9.884;2023-02-28T05:07:31;9.73;;;6.40;;
16878;SDS011;8556;52.218;9.884;2023-02-28T05:09:58;9.53;;;6.17;;
16878;SDS011;8556;52.218;9.884;2023-02-28T05:12:24;7.60;;;5.27;;
16878;SDS011;8556;52.218;9.884;2023-02-28T05:14:51;10.70;;;5.87;;
16878;SDS011;8556;52.218;9.884;2023-02-28T05:17:19;9.67;;;6.33;;
16878;SDS011;8556;52.218;9.884;2023-02-28T05:19:46;9.63;;;5.70;;
16878;SDS011;8556;52.218;9.884;2023-02-28T05:22:13;8.33;;;5.60;;
16878;SDS011;8556;52.218;9.884;2023-02-28T05:24:42;8.50;;;5.70;;
16878;SDS011;8556;52.218;9.884;2023-02-28T05:27:09;12.60;;;6.00;;
16878;SDS011;8556;52.218;9.884;2023-02-28T05:29:36;9.57;;;6.03;;
16878;SDS011;8556;52.218;9.884;2023-02-28T05:32:06;9.87;;;6.07;;
16878;SDS011;8556;52.218;9.884;2023-02-28T05:34:36;8.50;;;5.67;;
16878;SDS011;8556;52.218;9.884;2023-02-28T05:37:04;10.30;;;6.07;;
16878;SDS011;8556;52.218;9.884;2023-02-28T05:39:31;12.53;;;6.40;;
16878;SDS011;8556;52.218;9.884;2023-02-28T05:41:59;8.47;;;5.70;;
16878;SDS011;8556;52.218;9.884;2023-02-28T05:44:27;8.23;;;5.50;;
16878;SDS011;8556;52.218;9.884;2023-02-28T05:46:53;9.77;;;6.17;;
16878;SDS011;8556;52.218;9.884;2023-02-28T05:49:20;10.37;;;6.50;;
16878;SDS011;8556;52.218;9.884;2023-02-28T05:51:49;9.47;;;5.47;;
16878;SDS011;8556;52.218;9.884;2023-02-28T05:54:16;9.03;;;6.23;;
16878;SDS011;8556;52.218;9.884;2023-02-28T05:56:42;9.50;;;5.90;;
16878;SDS011;8556;52.218;9.884;2023-02-28T05:59:10;8.53;;;5.83;;
16878;SDS011;8556;52.218;9.884;2023-02-28T06:01:40;10.43;;;6.00;;
16878;SDS011;8556;52.218;9.884;2023-02-28T06:04:13;9.23;;;5.90;;
16878;SDS011;8556;52.218;9.884;2023-02-28T06:06:42;10.47;;;6.13;;
16878;SDS011;8556;52.218;9.884;2023-02-28T06:09:11;8.60;;;5.73;;
16878;SDS011;8556;52.218;9.884;2023-02-28T06:11:38;11.07;;;6.90;;
16878;SDS011;8556;52.218;9.884;2023-02-28T06:14:05;9.93;;;6.20;;
16878;SDS011;8556;52.218;9.884;2023-02-28T06:16:33;11.47;;;6.90;;
16878;SDS011;8556;52.218;9.884;2023-02-28T06:19:01;11.33;;;7.27;;
16878;SDS011;8556;52.218;9.884;2023-02-28T06:21:29;11.43;;;6.73;;
16878;SDS011;8556;52.218;9.884;2023-02-28T06:23:57;10.93;;;7.00;;
16878;SDS011;8556;52.218;9.884;2023-02-28T06:26:26;13.53;;;7.27;;
16878;SDS011;8556;52.218;9.884;2023-02-28T06:28:53;12.13;;;7.00;;
16878;SDS011;8556;52.218;9.884;2023-02-28T06:31:20;15.57;;;7.53;;
16878;SDS011;8556;52.218;9.884;2023-02-28T06:33:48;16.27;;;10.47;;
16878;SDS011;8556;52.218;9.884;2023-02-28T06:36:15;17.50;;;9.87;;
16878;SDS011;8556;52.218;9.884;2023-02-28T06:38:42;13.13;;;7.83;;
16878;SDS011;8556;52.218;9.884;2023-02-28T06:41:10;12.77;;;7.60;;
16878;SDS011;8556;52.218;9.884;2023-02-28T06:43:39;11.90;;;8.10;;
16878;SDS011;8556;52.218;9.884;2023-02-28T06:46:08;12.77;;;8.07;;
16878;SDS011;8556;52.218;9.884;2023-02-28T06:48:37;14.57;;;8.07;;
16878;SDS011;8556;52.218;9.884;2023-02-28T06:51:04;13.03;;;7.83;;
16878;SDS011;8556;52.218;9.884;2023-02-28T06:53:32;12.03;;;7.70;;
16878;SDS011;8556;52.218;9.884;2023-02-28T06:55:59;10.07;;;7.20;;
16878;SDS011;8556;52.218;9.884;2023-02-28T06:58:30;13.20;;;8.23;;
16878;SDS011;8556;52.218;9.884;2023-02-28T07:00:58;13.57;;;7.90;;
16878;SDS011;8556;52.218;9.884;2023-02-28T07:03:25;12.83;;;8.07;;
16878;SDS011;8556;52.218;9.884;2023-02-28T07:05:52;11.30;;;7.30;;
16878;SDS011;8556;52.218;9.884;2023-02-28T07:08:21;13.73;;;8.23;;
16878;SDS011;8556;52.218;9.884;2023-02-28T07:10:51;14.27;;;8.13;;
16878;SDS011;8556;52.218;9.884;2023-02-28T07:13:18;9.90;;;6.73;;
16878;SDS011;8556;52.218;9.884;2023-02-28T07:15:52;12.03;;;6.93;;
16878;SDS011;8556;52.218;9.884;2023-02-28T07:18:21;10.63;;;7.20;;
16878;SDS011;8556;52.218;9.884;2023-02-28T07:20:47;10.47;;;6.97;;
16878;SDS011;8556;52.218;9.884;2023-02-28T07:23:14;11.67;;;7.43;;
16878;SDS011;8556;52.218;9.884;2023-02-28T07:25:41;11.27;;;7.60;;
16878;SDS011;8556;52.218;9.884;2023-02-28T07:28:08;18.67;;;12.00;;
16878;SDS011;8556;52.218;9.884;2023-02-28T07:30:35;16.50;;;10.93;;
16878;SDS011;8556;52.218;9.884;2023-02-28T07:33:02;21.47;;;11.37;;
16878;SDS011;8556;52.218;9.884;2023-02-28T07:35:30;15.70;;;9.70;;
16878;SDS011;8556;52.218;9.884;2023-02-28T07:37:57;17.23;;;9.23;;
16878;SDS011;8556;52.218;9.884;2023-02-28T07:40:25;14.63;;;9.17;;
16878;SDS011;8556;52.218;9.884;2023-02-28T07:42:52;18.80;;;9.80;;
16878;SDS011;8556;52.218;9.884;2023-02-28T07:45:19;15.20;;;10.17;;
16878;SDS011;8556;52.218;9.884;2023-02-28T07:47:46;15.63;;;9.37;;
16878;SDS011;8556;52.218;9.884;2023-02-28T07:50:13;18.90;;;9.73;;
16878;SDS011;8556;52.218;9.884;2023-02-28T07:52:42;13.80;;;8.33;;
16878;SDS011;8556;52.218;9.884;2023-02-28T07:55:09;13.10;;;7.60;;
16878;SDS011;8556;52.218;9.884;2023-02-28T07:57:36;13.67;;;7.53;;
16878;SDS011;8556;52.218;9.884;2023-02-28T08:00:04;12.07;;;7.00;;
16878;SDS011;8556;52.218;9.884;2023-02-28T08:02:32;12.37;;;7.00;;
16878;SDS011;8556;52.218;9.884;2023-02-28T08:04:59;11.37;;;6.67;;
16878;SDS011;8556;52.218;9.884;2023-02-28T08:07:26;9.80;;;6.73;;
16878;SDS011;8556;52.218;9.884;2023-02-28T08:09:54;14.13;;;7.17;;
16878;SDS011;8556;52.218;9.884;2023-02-28T08:12:21;12.47;;;7.73;;
16878;SDS011;8556;52.218;9.884;2023-02-28T08:14:48;10.80;;;6.83;;
16878;SDS011;8556;52.218;9.884;2023-02-28T08:17:14;12.57;;;6.70;;
16878;SDS011;8556;52.218;9.884;2023-02-28T08:19:41;11.40;;;6.70;;
16878;SDS011;8556;52.218;9.884;2023-02-28T08:22:08;11.40;;;6.70;;
16878;SDS011;8556;52.218;9.884;2023-02-28T08:24:35;11.60;;;6.27;;
16878;SDS011;8556;52.218;9.884;2023-02-28T08:27:03;15.30;;;6.50;;
16878;SDS011;8556;52.218;9.884;2023-02-28T08:29:30;12.23;;;6.80;;
16878;SDS011;8556;52.218;9.884;2023-02-28T08:31:56;12.90;;;5.97;;
16878;SDS011;8556;52.218;9.884;2023-02-28T08:34:24;13.13;;;6.67;;
16878;SDS011;8556;52.218;9.884;2023-02-28T08:36:50;13.23;;;6.20;;
16878;SDS011;8556;52.218;9.884;2023-02-28T08:39:18;12.43;;;6.20;;
16878;SDS011;8556;52.218;9.884;2023-02-28T08:41:45;10.73;;;6.10;;
16878;SDS011;8556;52.218;9.884;2023-02-28T08:44:13;12.37;;;6.00;;
16878;SDS011;8556;52.218;9.884;2023-02-28T08:46:40;12.30;;;6.03;;
16878;SDS011;8556;52.218;9.884;2023-02-28T08:49:06;10.83;;;5.87;;
16878;SDS011;8556;52.218;9.884;2023-02-28T08:51:34;10.97;;;5.53;;
16878;SDS011;8556;52.218;9.884;2023-02-28T08:54:01;8.77;;;5.27;;
16878;SDS011;8556;52.218;9.884;2023-02-28T08:56:28;7.67;;;4.30;;
16878;SDS011;8556;52.218;9.884;2023-02-28T08:58:55;7.93;;;3.60;;
16878;SDS011;8556;52.218;9.884;2023-02-28T09:01:25;8.00;;;4.37;;
16878;SDS011;8556;52.218;9.884;2023-02-28T09:03:54;6.93;;;4.00;;
16878;SDS011;8556;52.218;9.884;2023-02-28T09:06:22;7.30;;;4.87;;
16878;SDS011;8556;52.218;9.884;2023-02-28T09:08:50;7.37;;;4.27;;
16878;SDS011;8556;52.218;9.884;2023-02-28T09:11:19;9.37;;;4.07;;
16878;SDS011;8556;52.218;9.884;2023-02-28T09:13:46;7.40;;;4.50;;
16878;SDS011;8556;52.218;9.884;2023-02-28T09:16:13;8.87;;;4.10;;
16878;SDS011;8556;52.218;9.884;2023-02-28T09:18:43;5.27;;;3.40;;
16878;SDS011;8556;52.218;9.884;2023-02-28T09:21:13;5.83;;;3.63;;
16878;SDS011;8556;52.218;9.884;2023-02-28T09:23:41;7.30;;;3.77;;
16878;SDS011;8556;52.218;9.884;2023-02-28T09:26:12;6.10;;;3.90;;
16878;SDS011;8556;52.218;9.884;2023-02-28T09:28:40;8.50;;;4.20;;
16878;SDS011;8556;52.218;9.884;2023-02-28T09:31:10;6.80;;;3.57;;
16878;SDS011;8556;52.218;9.884;2023-02-28T09:33:38;6.17;;;3.40;;
16878;SDS011;8556;52.218;9.884;2023-02-28T09:36:07;5.03;;;3.40;;
16878;SDS011;8556;52.218;9.884;2023-02-28T09:38:34;7.20;;;4.03;;
16878;SDS011;8556;52.218;9.884;2023-02-28T09:41:02;5.57;;;3.57;;
16878;SDS011;8556;52.218;9.884;2023-02-28T09:43:37;6.03;;;3.73;;
16878;SDS011;8556;52.218;9.884;2023-02-28T09:46:08;4.47;;;2.97;;
16878;SDS011;8556;52.218;9.884;2023-02-28T09:48:41;5.13;;;3.20;;
16878;SDS011;8556;52.218;9.884;2023-02-28T09:51:14;9.23;;;3.67;;
16878;SDS011;8556;52.218;9.884;2023-02-28T09:53:52;6.60;;;3.70;;
16878;SDS011;8556;52.218;9.884;2023-02-28T09:56:20;5.80;;;3.90;;
16878;SDS011;8556;52.218;9.884;2023-02-28T09:58:53;6.67;;;3.70;;
16878;SDS011;8556;52.218;9.884;2023-02-28T10:01:24;6.90;;;3.63;;
16878;SDS011;8556;52.218;9.884;2023-02-28T10:03:58;4.43;;;2.93;;
16878;SDS011;8556;52.218;9.884;2023-02-28T10:06:32;6.53;;;3.77;;
16878;SDS011;8556;52.218;9.884;2023-02-28T10:09:03;6.70;;;4.00;;
16878;SDS011;8556;52.218;9.884;2023-02-28T10:11:34;7.73;;;4.03;;
16878;SDS011;8556;52.218;9.884;2023-02-28T10:14:04;8.67;;;4.03;;
16878;SDS011;8556;52.218;9.884;2023-02-28T10:16:40;7.83;;;3.80;;
16878;SDS011;8556;52.218;9.884;2023-02-28T10:19:13;6.70;;;3.50;;
16878;SDS011;8556;52.218;9.884;2023-02-28T10:21:47;7.67;;;4.13;;
16878;SDS011;8556;52.218;9.884;2023-02-28T10:24:21;7.77;;;3.67;;
16878;SDS011;8556;52.218;9.884;2023-02-28T10:26:55;5.90;;;3.40;;
16878;SDS011;8556;52.218;9.884;2023-02-28T10:29:25;6.77;;;3.43;;
16878;SDS011;8556;52.218;9.884;2023-02-28T10:31:52;7.43;;;3.40;;
16878;SDS011;8556;52.218;9.884;2023-02-28T10:34:19;6.30;;;3.30;;
16878;SDS011;8556;52.218;9.884;2023-02-28T10:36:47;8.37;;;3.87;;
16878;SDS011;8556;52.218;9.884;2023-02-28T10:39:36;6.23;;;3.87;;
16878;SDS011;8556;52.218;9.884;2023-02-28T10:42:04;6.07;;;3.47;;
16878;SDS011;8556;52.218;9.884;2023-02-28T10:44:31;6.10;;;3.27;;
16878;SDS011;8556;52.218;9.884;2023-02-28T10:46:58;6.73;;;3.60;;
16878;SDS011;8556;52.218;9.884;2023-02-28T10:49:26;5.33;;;3.47;;
16878;SDS011;8556;52.218;9.884;2023-02-28T10:51:56;4.87;;;3.53;;
16878;SDS011;8556;52.218;9.884;2023-02-28T10:54:24;4.83;;;3.07;;
16878;SDS011;8556;52.218;9.884;2023-02-28T10:57:08;5.87;;;3.80;;
16878;SDS011;8556;52.218;9.884;2023-02-28T10:59:44;6.40;;;3.37;;
16878;SDS011;8556;52.218;9.884;2023-02-28T11:04:59;4.87;;;3.37;;
16878;SDS011;8556;52.218;9.884;2023-02-28T11:07:28;5.10;;;3.33;;
16878;SDS011;8556;52.218;9.884;2023-02-28T11:09:55;7.67;;;3.50;;
16878;SDS011;8556;52.218;9.884;2023-02-28T11:12:25;6.40;;;3.33;;
16878;SDS011;8556;52.218;9.884;2023-02-28T11:14:55;4.90;;;3.03;;
16878;SDS011;8556;52.218;9.884;2023-02-28T11:17:24;5.83;;;3.63;;
16878;SDS011;8556;52.218;9.884;2023-02-28T11:19:54;5.77;;;2.60;;
16878;SDS011;8556;52.218;9.884;2023-02-28T11:22:23;4.07;;;3.07;;
16878;SDS011;8556;52.218;9.884;2023-02-28T11:24:55;5.77;;;3.00;;
16878;SDS011;8556;52.218;9.884;2023-02-28T11:27:25;5.40;;;3.17;;
16878;SDS011;8556;52.218;9.884;2023-02-28T11:30:11;3.67;;;2.50;;
16878;SDS011;8556;52.218;9.884;2023-02-28T11:32:53;4.53;;;2.70;;
16878;SDS011;8556;52.218;9.884;2023-02-28T11:35:22;6.33;;;3.13;;
16878;SDS011;8556;52.218;9.884;2023-02-28T11:37:52;5.57;;;3.20;;
16878;SDS011;8556;52.218;9.884;2023-02-28T11:40:21;5.90;;;3.00;;
16878;SDS011;8556;52.218;9.884;2023-02-28T11:42:57;4.60;;;3.23;;
16878;SDS011;8556;52.218;9.884;2023-02-28T11:45:37;6.73;;;3.40;;
16878;SDS011;8556;52.218;9.884;2023-02-28T11:48:13;5.53;;;3.30;;
16878;SDS011;8556;52.218;9.884;2023-02-28T11:50:49;8.40;;;4.00;;
16878;SDS011;8556;52.218;9.884;2023-02-28T11:53:30;3.90;;;3.13;;
16878;SDS011;8556;52.218;9.884;2023-02-28T11:56:13;4.20;;;3.03;;
16878;SDS011;8556;52.218;9.884;2023-02-28T11:58:48;6.10;;;3.97;;
16878;SDS011;8556;52.218;9.884;2023-02-28T12:01:26;4.57;;;3.10;;
16878;SDS011;8556;52.218;9.884;2023-02-28T12:04:10;4.60;;;2.97;;
16878;SDS011;8556;52.218;9.884;2023-02-28T12:06:50;4.97;;;2.87;;
16878;SDS011;8556;52.218;9.884;2023-02-28T12:09:32;6.50;;;2.90;;
16878;SDS011;8556;52.218;9.884;2023-02-28T12:12:10;4.33;;;2.80;;
16878;SDS011;8556;52.218;9.884;2023-02-28T12:14:57;5.00;;;2.90;;
16878;SDS011;8556;52.218;9.884;2023-02-28T12:17:54;3.67;;;2.20;;
16878;SDS011;8556;52.218;9.884;2023-02-28T12:20:32;4.47;;;2.17;;
16878;SDS011;8556;52.218;9.884;2023-02-28T12:23:23;3.73;;;2.10;;
16878;SDS011;8556;52.218;9.884;2023-02-28T12:26:09;8.77;;;3.10;;
16878;SDS011;8556;52.218;9.884;2023-02-28T12:28:47;4.17;;;2.63;;
16878;SDS011;8556;52.218;9.884;2023-02-28T12:31:18;4.37;;;3.00;;
16878;SDS011;8556;52.218;9.884;2023-02-28T12:33:49;3.70;;;2.50;;
16878;SDS011;8556;52.218;9.884;2023-02-28T12:36:19;7.07;;;2.50;;
16878;SDS011;8556;52.218;9.884;2023-02-28T12:38:49;4.13;;;2.73;;
16878;SDS011;8556;52.218;9.884;2023-02-28T12:41:22;4.83;;;2.47;;
16878;SDS011;8556;52.218;9.884;2023-02-28T12:43:57;3.47;;;2.50;;
16878;SDS011;8556;52.218;9.884;2023-02-28T12:46:29;3.57;;;2.50;;
16878;SDS011;8556;52.218;9.884;2023-02-28T12:49:00;4.17;;;2.70;;
16878;SDS011;8556;52.218;9.884;2023-02-28T12:51:31;3.73;;;3.00;;
16878;SDS011;8556;52.218;9.884;2023-02-28T12:54:04;4.23;;;2.70;;
16878;SDS011;8556;52.218;9.884;2023-02-28T12:56:42;2.93;;;2.13;;
16878;SDS011;8556;52.218;9.884;2023-02-28T12:59:14;4.13;;;2.67;;
16878;SDS011;8556;52.218;9.884;2023-02-28T13:01:53;3.77;;;2.67;;
16878;SDS011;8556;52.218;9.884;2023-02-28T13:04:45;4.60;;;2.40;;
16878;SDS011;8556;52.218;9.884;2023-02-28T13:07:31;6.20;;;2.57;;
16878;SDS011;8556;52.218;9.884;2023-02-28T13:10:14;6.67;;;2.90;;
16878;SDS011;8556;52.218;9.884;2023-02-28T13:12:47;6.63;;;2.53;;
16878;SDS011;8556;52.218;9.884;2023-02-28T13:15:18;4.73;;;2.63;;
16878;SDS011;8556;52.218;9.884;2023-02-28T13:17:49;5.17;;;2.90;;
16878;SDS011;8556;52.218;9.884;2023-02-28T13:20:19;5.23;;;2.70;;
16878;SDS011;8556;52.218;9.884;2023-02-28T13:22:48;5.63;;;2.90;;
16878;SDS011;8556;52.218;9.884;2023-02-28T13:34:35;4.43;;;2.67;;
16878;SDS011;8556;52.218;9.884;2023-02-28T13:40:23;3.77;;;2.50;;
16878;SDS011;8556;52.218;9.884;2023-02-28T13:42:54;6.50;;;2.33;;
16878;SDS011;8556;52.218;9.884;2023-02-28T13:45:23;4.03;;;2.90;;
16878;SDS011;8556;52.218;9.884;2023-02-28T13:47:56;6.40;;;2.83;;
16878;SDS011;8556;52.218;9.884;2023-02-28T13:50:32;4.00;;;2.60;;
16878;SDS011;8556;52.218;9.884;2023-02-28T13:56:10;4.53;;;2.80;;
16878;SDS011;8556;52.218;9.884;2023-02-28T13:58:53;4.10;;;2.60;;
16878;SDS011;8556;52.218;9.884;2023-02-28T14:07:31;4.20;;;2.67;;
16878;SDS011;8556;52.218;9.884;2023-02-28T14:10:04;4.17;;;2.80;;
16878;SDS011;8556;52.218;9.884;2023-02-28T14:12:52;3.40;;;2.70;;
16878;SDS011;8556;52.218;9.884;2023-02-28T14:15:28;4.97;;;3.10;;
16878;SDS011;8556;52.218;9.884;2023-02-28T14:18:13;5.53;;;2.90;;
16878;SDS011;8556;52.218;9.884;2023-02-28T14:20:47;5.27;;;2.90;;
16878;SDS011;8556;52.218;9.884;2023-02-28T14:23:23;4.80;;;2.97;;
16878;SDS011;8556;52.218;9.884;2023-02-28T14:26:01;6.27;;;3.00;;
16878;SDS011;8556;52.218;9.884;2023-02-28T14:28:38;5.83;;;2.97;;
16878;SDS011;8556;52.218;9.884;2023-02-28T14:31:15;3.83;;;2.90;;
16878;SDS011;8556;52.218;9.884;2023-02-28T14:33:48;3.87;;;2.93;;
16878;SDS011;8556;52.218;9.884;2023-02-28T14:36:42;4.90;;;2.90;;
16878;SDS011;8556;52.218;9.884;2023-02-28T14:39:13;3.40;;;2.50;;
16878;SDS011;8556;52.218;9.884;2023-02-28T14:41:43;5.03;;;2.90;;
16878;SDS011;8556;52.218;9.884;2023-02-28T14:44:14;3.20;;;2.60;;
16878;SDS011;8556;52.218;9.884;2023-02-28T14:46:43;6.83;;;3.10;;
16878;SDS011;8556;52.218;9.884;2023-02-28T14:49:13;4.93;;;2.80;;
16878;SDS011;8556;52.218;9.884;2023-02-28T14:51:43;7.53;;;3.33;;
16878;SDS011;8556;52.218;9.884;2023-02-28T14:54:14;3.60;;;2.83;;
16878;SDS011;8556;52.218;9.884;2023-02-28T14:56:43;3.70;;;2.80;;
16878;SDS011;8556;52.218;9.884;2023-02-28T14:59:23;3.43;;;2.77;;
16878;SDS011;8556;52.218;9.884;2023-02-28T15:01:52;5.93;;;2.93;;
16878;SDS011;8556;52.218;9.884;2023-02-28T15:04:33;4.90;;;2.70;;
16878;SDS011;8556;52.218;9.884;2023-02-28T15:07:09;6.07;;;3.20;;
16878;SDS011;8556;52.218;9.884;2023-02-28T15:09:38;5.60;;;2.80;;
16878;SDS011;8556;52.218;9.884;2023-02-28T15:12:05;4.03;;;3.03;;
16878;SDS011;8556;52.218;9.884;2023-02-28T15:14:32;4.07;;;2.63;;
16878;SDS011;8556;52.218;9.884;2023-02-28T15:17:02;3.70;;;2.97;;
16878;SDS011;8556;52.218;9.884;2023-02-28T15:19:33;3.57;;;2.73;;
16878;SDS011;8556;52.218;9.884;2023-02-28T15:22:03;5.17;;;3.10;;
16878;SDS011;8556;52.218;9.884;2023-02-28T15:24:35;4.07;;;3.13;;
16878;SDS011;8556;52.218;9.884;2023-02-28T15:27:07;3.83;;;2.73;;
16878;SDS011;8556;52.218;9.884;2023-02-28T15:29:42;4.77;;;3.20;;
16878;SDS011;8556;52.218;9.884;2023-02-28T15:32:20;5.83;;;3.10;;
16878;SDS011;8556;52.218;9.884;2023-02-28T15:34:51;4.73;;;3.33;;
16878;SDS011;8556;52.218;9.884;2023-02-28T15:37:29;7.97;;;3.30;;
16878;SDS011;8556;52.218;9.884;2023-02-28T15:40:12;5.77;;;3.40;;
16878;SDS011;8556;52.218;9.884;2023-02-28T15:42:41;5.37;;;3.07;;
16878;SDS011;8556;52.218;9.884;2023-02-28T15:48:00;6.00;;;3.47;;
16878;SDS011;8556;52.218;9.884;2023-02-28T15:50:27;4.33;;;3.20;;
16878;SDS011;8556;52.218;9.884;2023-02-28T15:52:55;5.83;;;3.27;;
16878;SDS011;8556;52.218;9.884;2023-02-28T15:55:26;6.07;;;3.50;;
16878;SDS011;8556;52.218;9.884;2023-02-28T15:57:56;5.30;;;3.50;;